This is the latest recevied weather packets stored in our database for station/object N2UGS-WX. If no packets are shown the sender has not sent any weather packets the latest 1 day(s).
| Time | Temp. | Humidity | Pressure | Rain* | Wind** | Luminosity | Snow |
|---|---|---|---|---|---|---|---|
| 1836274675 | 8.89° C | 85% | 1022.7 hPa | 0 mm | 0 m/s | - | - |
| 1836274526 | 8.89° C | 86% | 1022.7 hPa | 0 mm | 0 m/s | - | - |
| 1778046302 | 8.89° C | 98% | 1009.1 hPa | 2.54 mm | 0 m/s | - | - |
| 1778045403 | 8.89° C | 98% | 1009.5 hPa | 2.79 mm | 0 m/s | - | - |
| 1778044502 | 8.89° C | 98% | 1009.8 hPa | 3.05 mm | 0.45 m/s, 64° | - | - |
| 1778043602 | 8.89° C | 98% | 1009.5 hPa | 2.54 mm | 0 m/s | - | - |
| 1778042702 | 8.89° C | 98% | 1009.5 hPa | 1.52 mm | 0 m/s | - | - |
| 1778041802 | 8.89° C | 98% | 1009.1 hPa | 0.76 mm | 0 m/s | - | - |
| 1778040903 | 8.89° C | 98% | 1009.1 hPa | 0.51 mm | 0 m/s | - | - |
| 1778040003 | 8.89° C | 98% | 1009.1 hPa | 0.51 mm | 0 m/s | - | - |
| 1778039702 | 8.89° C | 98% | 1009.1 hPa | 1.02 mm | 0 m/s | - | - |
| 1778038802 | 8.89° C | 98% | 1009.1 hPa | 1.27 mm | 0 m/s | - | - |
| 1778037901 | 9.44° C | 98% | 1009.5 hPa | 2.03 mm | 0 m/s | - | - |
| 1778037003 | 9.44° C | 98% | 1009.5 hPa | 1.52 mm | 0 m/s | - | - |
| 1778036102 | 9.44° C | 98% | 1009.5 hPa | 1.02 mm | 0 m/s | - | - |
| 1778035502 | 9.44° C | 98% | 1009.8 hPa | 1.02 mm | 0.89 m/s, 57° | - | - |
| 1778034601 | 9.44° C | 97% | 1009.8 hPa | 0.51 mm | 0 m/s | - | - |
| 1778033701 | 9.44° C | 97% | 1009.8 hPa | 0.51 mm | 0 m/s | - | - |
| 1778032742 | 9.44° C | 97% | 1009.8 hPa | 0.51 mm | 0 m/s | - | - |
| 1778032142 | 9.44° C | 97% | 1009.8 hPa | 0.25 mm | 0 m/s | - | - |
| 1778031302 | 8.89° C | 97% | 1010.2 hPa | 1.27 mm | 0 m/s | - | - |
| 1778030701 | 8.89° C | 97% | 1009.8 hPa | 1.78 mm | 0 m/s | - | - |
| 1778029803 | 9.44° C | 97% | 1009.8 hPa | 2.29 mm | 0 m/s | - | - |
| 1778028902 | 9.44° C | 96% | 1009.8 hPa | 3.3 mm | 0.45 m/s, 259° | - | - |
| 1778028242 | 9.44° C | 96% | 1009.8 hPa | 4.06 mm | 0 m/s | - | - |
* Rain latest hour (hover to see other rain measurements)
** Current wind speed in m/s (hover to see current wind gust speed)